Time;durP1;ratioP1;P1;durP2;ratioP2;P2;SDS_P1;SDS_P2;PMS_P1;PMS_P2;Temp;Humidity;BMP_temperature;BMP_pressure;BME280_temperature;BME280_humidity;BME280_pressure;Samples;Min_cycle;Max_cycle;Signal;HPM_P1;HPM_P2
2024/03/25 00:00:51;;;;;;;10.38;4.32;;;10.70;96.70;;;;;;5049660;28;20041;-70
2024/03/25 00:03:20;;;;;;;6.57;3.85;;;10.80;96.70;;;;;;5055731;28;20453;-69
2024/03/25 00:05:48;;;;;;;6.07;3.80;;;10.80;96.70;;;;;;5064466;28;20493;-72
2024/03/25 00:08:15;;;;;;;6.05;3.38;;;10.80;96.70;;;;;;5065915;28;20093;-72
2024/03/25 00:10:44;;;;;;;6.30;3.25;;;10.80;96.70;;;;;;5048443;28;20183;-73
2024/03/25 00:13:14;;;;;;;6.95;4.00;;;10.90;96.70;;;;;;5049368;28;20135;-73
2024/03/25 00:15:43;;;;;;;5.88;3.70;;;10.90;96.70;;;;;;5064973;28;20053;-72
2024/03/25 00:18:11;;;;;;;7.15;3.30;;;11.00;96.70;;;;;;5048937;28;20048;-72
2024/03/25 00:20:39;;;;;;;6.25;3.55;;;10.90;96.70;;;;;;5065082;28;20044;-73
2024/03/25 00:23:06;;;;;;;6.05;3.47;;;10.90;96.70;;;;;;5048944;28;20045;-70
2024/03/25 00:25:34;;;;;;;5.78;3.80;;;11.00;96.70;;;;;;5048776;28;20040;-70
2024/03/25 00:28:05;;;;;;;5.20;3.45;;;11.00;96.70;;;;;;5051480;28;20102;-72
2024/03/25 00:30:32;;;;;;;6.40;3.85;;;10.80;96.70;;;;;;5065945;28;20501;-70
2024/03/25 00:33:03;;;;;;;5.50;3.25;;;10.80;96.70;;;;;;5065296;28;20102;-69
2024/03/25 00:35:33;;;;;;;6.50;3.33;;;10.70;96.70;;;;;;5069956;28;20131;-70
2024/03/25 00:38:00;;;;;;;8.57;3.80;;;10.80;96.70;;;;;;5065161;28;20048;-69
2024/03/25 00:40:27;;;;;;;6.75;3.63;;;10.90;96.70;;;;;;5065366;28;20056;-71
2024/03/25 00:42:55;;;;;;;4.88;2.92;;;10.90;96.70;;;;;;5066673;28;20044;-71
2024/03/25 00:45:30;;;;;;;6.93;3.15;;;10.80;96.70;;;;;;5052760;28;20394;-69
2024/03/25 00:47:59;;;;;;;6.10;3.43;;;10.70;96.70;;;;;;5070532;28;20048;-69
2024/03/25 00:50:30;;;;;;;5.03;3.50;;;10.80;96.70;;;;;;5062183;28;20812;-68
2024/03/25 00:52:59;;;;;;;6.28;3.60;;;10.80;96.70;;;;;;5049699;28;20048;-71
2024/03/25 00:55:28;;;;;;;5.10;3.20;;;10.80;96.70;;;;;;5043474;28;20052;-71
2024/03/25 00:57:55;;;;;;;6.85;3.65;;;10.90;96.70;;;;;;5059264;28;20044;-71
2024/03/25 01:00:25;;;;;;;8.00;4.10;;;10.80;96.70;;;;;;5066059;28;20128;-72
2024/03/25 01:02:54;;;;;;;7.95;3.67;;;10.70;96.70;;;;;;5073890;28;20078;-71
2024/03/25 01:05:22;;;;;;;7.45;4.18;;;10.70;96.70;;;;;;5049596;28;20052;-72
2024/03/25 01:07:50;;;;;;;7.40;3.95;;;10.60;96.70;;;;;;5064231;28;20040;-73
2024/03/25 01:10:18;;;;;;;5.78;3.35;;;10.50;96.70;;;;;;5072812;28;20045;-71
2024/03/25 01:12:45;;;;;;;6.03;3.00;;;10.50;96.70;;;;;;5069210;28;20055;-72
2024/03/25 01:15:12;;;;;;;5.32;3.10;;;10.50;96.70;;;;;;5069335;28;20052;-72
2024/03/25 01:17:42;;;;;;;7.35;3.28;;;10.60;96.70;;;;;;5073126;28;20040;-72
2024/03/25 01:20:11;;;;;;;7.05;3.35;;;10.50;96.70;;;;;;5055997;28;20060;-71
2024/03/25 01:22:38;;;;;;;4.53;2.75;;;10.50;96.70;;;;;;5064574;28;20059;-72
2024/03/25 01:25:08;;;;;;;5.95;3.00;;;10.40;96.70;;;;;;5066018;28;20040;-72
2024/03/25 01:27:36;;;;;;;7.80;3.33;;;10.40;96.70;;;;;;5073207;28;20060;-71
2024/03/25 01:30:07;;;;;;;6.55;3.17;;;10.30;96.70;;;;;;5070361;28;20047;-72
2024/03/25 01:32:36;;;;;;;5.85;2.97;;;10.30;96.70;;;;;;5064222;28;20044;-72
2024/03/25 01:35:07;;;;;;;5.63;3.17;;;10.40;96.70;;;;;;5050518;28;20049;-72
2024/03/25 01:37:35;;;;;;;6.00;2.95;;;10.40;96.70;;;;;;5065033;28;20044;-73
2024/03/25 01:40:05;;;;;;;5.05;3.10;;;10.50;96.70;;;;;;5072892;28;20588;-71
2024/03/25 01:42:33;;;;;;;7.13;3.30;;;10.50;96.70;;;;;;5051631;28;20059;-71
2024/03/25 01:45:02;;;;;;;4.95;2.50;;;10.50;96.70;;;;;;5054134;28;20083;-70
2024/03/25 01:47:35;;;;;;;6.40;3.10;;;10.40;96.70;;;;;;5048972;28;20049;-70
2024/03/25 01:50:06;;;;;;;6.95;3.65;;;10.30;96.70;;;;;;5067477;28;20104;-70
2024/03/25 01:52:34;;;;;;;7.03;3.33;;;10.30;96.70;;;;;;5068551;28;20070;-72
2024/03/25 01:55:05;;;;;;;7.72;3.70;;;10.40;96.70;;;;;;5071351;28;20051;-72
2024/03/25 01:57:34;;;;;;;5.93;3.00;;;10.40;96.70;;;;;;5047187;28;20065;-72
2024/03/25 02:00:02;;;;;;;4.63;2.78;;;10.50;96.70;;;;;;5065334;28;20098;-72
2024/03/25 02:02:37;;;;;;;5.50;2.33;;;10.30;96.70;;;;;;5054254;28;20047;-72
2024/03/25 02:05:07;;;;;;;5.43;3.17;;;10.40;96.70;;;;;;5057260;28;20040;-71
2024/03/25 02:07:38;;;;;;;4.93;2.95;;;10.40;96.70;;;;;;5068885;28;20601;-71
2024/03/25 02:10:14;;;;;;;7.45;3.17;;;10.30;96.70;;;;;;5067876;28;20044;-70
2024/03/25 02:12:42;;;;;;;6.65;3.60;;;10.30;96.70;;;;;;5068259;28;20045;-72
2024/03/25 02:15:11;;;;;;;5.88;2.58;;;10.10;96.70;;;;;;5065118;28;20040;-72
2024/03/25 02:17:39;;;;;;;6.70;3.08;;;10.10;96.70;;;;;;5065091;28;20048;-71
2024/03/25 02:20:11;;;;;;;4.90;2.50;;;10.20;96.70;;;;;;5075126;28;20520;-72
2024/03/25 02:22:39;;;;;;;5.43;2.58;;;10.30;96.70;;;;;;5064592;28;20035;-71
2024/03/25 02:25:10;;;;;;;6.45;2.50;;;10.30;96.70;;;;;;5056602;28;20056;-70
2024/03/25 02:27:40;;;;;;;6.35;1.95;;;10.20;96.70;;;;;;5068088;28;20062;-72
2024/03/25 02:30:13;;;;;;;5.88;2.65;;;10.20;96.70;;;;;;5050352;28;20458;-69
2024/03/25 02:32:42;;;;;;;5.90;2.72;;;10.10;96.70;;;;;;5060377;28;20114;-69
2024/03/25 02:35:15;;;;;;;3.95;2.20;;;9.90;96.70;;;;;;5067369;28;20052;-70
2024/03/25 02:37:43;;;;;;;4.75;2.38;;;10.00;96.70;;;;;;5056181;28;20159;-72
2024/03/25 02:40:11;;;;;;;5.22;1.90;;;10.10;96.70;;;;;;5051258;28;20052;-71
2024/03/25 02:42:41;;;;;;;5.30;2.15;;;10.00;96.70;;;;;;5067073;28;20040;-69
2024/03/25 02:45:09;;;;;;;5.15;2.20;;;9.90;96.70;;;;;;5067833;28;20105;-69
2024/03/25 02:47:37;;;;;;;5.22;2.28;;;9.90;96.70;;;;;;5067119;28;20084;-69
2024/03/25 02:50:07;;;;;;;4.50;2.20;;;10.00;96.70;;;;;;5067228;28;20389;-72
2024/03/25 02:52:34;;;;;;;6.85;2.40;;;10.00;96.70;;;;;;5049715;28;20496;-72
2024/03/25 02:55:02;;;;;;;5.85;2.53;;;9.90;96.70;;;;;;5066454;28;20063;-71
2024/03/25 02:57:31;;;;;;;5.07;2.33;;;9.70;96.70;;;;;;5066622;28;20045;-71
2024/03/25 03:00:03;;;;;;;5.57;2.67;;;9.90;96.70;;;;;;5050596;28;20044;-69
2024/03/25 03:02:30;;;;;;;5.05;2.20;;;9.90;96.70;;;;;;5066889;28;20045;-72
2024/03/25 03:05:03;;;;;;;5.55;2.13;;;9.80;96.70;;;;;;5064060;28;20574;-71
2024/03/25 03:07:31;;;;;;;5.07;2.38;;;9.90;96.70;;;;;;5064459;28;20036;-71
2024/03/25 03:09:59;;;;;;;5.70;2.60;;;9.90;96.70;;;;;;5067007;28;20071;-71
2024/03/25 03:12:26;;;;;;;7.50;2.85;;;9.70;96.70;;;;;;5049801;28;20055;-72
2024/03/25 03:14:54;;;;;;;5.93;2.85;;;9.60;96.70;;;;;;5067310;28;20044;-71
2024/03/25 03:17:25;;;;;;;4.72;2.60;;;9.70;96.70;;;;;;5067024;28;20044;-71
2024/03/25 03:19:53;;;;;;;5.53;2.58;;;9.80;96.70;;;;;;5066883;28;20036;-70
2024/03/25 03:22:20;;;;;;;6.38;2.65;;;9.70;96.70;;;;;;5066686;28;20048;-71
2024/03/25 03:24:48;;;;;;;3.80;2.25;;;9.70;96.70;;;;;;5049614;28;20044;-72
2024/03/25 03:27:18;;;;;;;4.65;2.53;;;9.50;96.70;;;;;;5063962;28;20052;-71
2024/03/25 03:29:47;;;;;;;5.38;2.13;;;9.50;96.70;;;;;;5057046;28;20501;-69
2024/03/25 03:32:14;;;;;;;3.90;2.15;;;9.40;96.70;;;;;;5067179;28;20036;-69
2024/03/25 03:34:45;;;;;;;5.65;2.67;;;9.30;96.70;;;;;;5067085;28;20044;-69
2024/03/25 03:37:13;;;;;;;5.25;2.70;;;9.30;96.70;;;;;;5058309;28;20052;-69
2024/03/25 03:39:44;;;;;;;7.97;2.88;;;9.20;96.70;;;;;;5066865;28;20564;-69
2024/03/25 03:42:13;;;;;;;5.63;2.78;;;9.20;96.70;;;;;;5067392;28;20040;-69
2024/03/25 03:44:40;;;;;;;4.30;2.80;;;9.20;96.70;;;;;;5060249;28;20053;-71
2024/03/25 03:47:10;;;;;;;5.30;2.45;;;9.10;96.70;;;;;;5065435;28;20139;-71
2024/03/25 03:49:37;;;;;;;4.18;2.10;;;9.10;96.70;;;;;;5066624;28;20047;-71
2024/03/25 03:52:06;;;;;;;6.22;2.60;;;9.20;96.70;;;;;;5066562;28;20122;-71
2024/03/25 03:54:39;;;;;;;4.30;2.00;;;9.30;96.70;;;;;;5066470;28;20591;-71
2024/03/25 03:57:06;;;;;;;4.72;2.47;;;9.30;96.70;;;;;;5063755;28;20093;-71
2024/03/25 03:59:33;;;;;;;5.97;2.58;;;9.30;96.70;;;;;;5064615;28;20074;-75
2024/03/25 04:02:01;;;;;;;4.60;2.50;;;9.20;96.70;;;;;;5041465;28;20044;-71
2024/03/25 04:04:29;;;;;;;6.03;2.72;;;9.10;96.70;;;;;;5033120;28;20452;-71
2024/03/25 04:06:57;;;;;;;4.18;2.08;;;9.20;96.70;;;;;;5067244;28;20710;-71
2024/03/25 04:09:29;;;;;;;4.15;2.13;;;9.00;96.70;;;;;;5049591;28;20473;-71
2024/03/25 04:12:00;;;;;;;4.15;2.55;;;9.10;96.70;;;;;;5065792;28;20098;-71
2024/03/25 04:14:33;;;;;;;4.60;2.40;;;9.10;96.70;;;;;;5065107;28;20437;-71
2024/03/25 04:17:01;;;;;;;4.45;2.35;;;9.20;96.70;;;;;;5032941;28;20049;-71
2024/03/25 04:19:33;;;;;;;5.20;2.70;;;9.20;96.70;;;;;;5057842;28;20048;-71
2024/03/25 04:22:03;;;;;;;4.35;2.45;;;9.10;96.70;;;;;;5032994;28;20492;-72
2024/03/25 04:24:34;;;;;;;3.97;2.40;;;9.00;96.70;;;;;;5066234;28;20102;-72
2024/03/25 04:27:04;;;;;;;4.22;2.83;;;8.90;96.70;;;;;;5065873;28;20070;-70
2024/03/25 04:29:32;;;;;;;5.15;2.40;;;8.80;96.70;;;;;;5065898;28;20055;-70
2024/03/25 04:32:00;;;;;;;4.00;2.85;;;8.80;96.70;;;;;;5049413;28;20090;-71
2024/03/25 04:34:27;;;;;;;5.45;2.40;;;8.90;96.70;;;;;;5065687;28;20049;-71
2024/03/25 04:36:55;;;;;;;5.18;2.60;;;8.80;96.70;;;;;;5065287;28;20049;-70
2024/03/25 04:39:23;;;;;;;3.92;2.63;;;9.00;96.70;;;;;;5048165;28;20052;-71
2024/03/25 04:41:54;;;;;;;5.18;2.45;;;9.00;96.70;;;;;;5064078;28;20417;-71
2024/03/25 04:44:22;;;;;;;5.30;2.50;;;8.90;96.70;;;;;;5065534;28;20063;-71
2024/03/25 04:46:50;;;;;;;5.88;2.65;;;8.90;96.70;;;;;;5065502;28;20052;-70
2024/03/25 04:49:19;;;;;;;4.03;2.47;;;9.00;96.70;;;;;;5065383;28;20048;-71
2024/03/25 04:51:47;;;;;;;5.07;3.00;;;9.00;96.70;;;;;;5045300;28;20517;-71
2024/03/25 04:54:15;;;;;;;4.13;2.75;;;8.90;96.70;;;;;;5046668;28;20070;-71
2024/03/25 04:56:44;;;;;;;6.78;3.22;;;9.00;96.70;;;;;;5064598;28;20052;-71
2024/03/25 04:59:13;;;;;;;6.25;2.83;;;9.00;96.70;;;;;;5064676;28;20139;-70
2024/03/25 05:01:41;;;;;;;6.50;2.47;;;8.90;96.70;;;;;;5064568;28;20113;-71
2024/03/25 05:04:09;;;;;;;5.32;2.55;;;8.90;96.70;;;;;;5047935;28;20048;-71
2024/03/25 05:06:38;;;;;;;4.18;3.03;;;8.90;96.70;;;;;;5063903;28;20143;-71
2024/03/25 05:09:07;;;;;;;6.85;2.95;;;9.00;96.70;;;;;;5063072;28;20068;-72
2024/03/25 05:11:34;;;;;;;5.32;3.28;;;8.90;96.70;;;;;;5059217;28;20086;-71
2024/03/25 05:14:03;;;;;;;4.15;2.53;;;8.90;96.70;;;;;;5064682;28;20054;-68
2024/03/25 05:16:34;;;;;;;5.43;2.28;;;8.80;96.70;;;;;;5065001;28;20044;-69
2024/03/25 05:19:03;;;;;;;4.88;2.85;;;8.80;96.70;;;;;;5047218;28;20466;-68
2024/03/25 05:21:31;;;;;;;5.22;2.88;;;8.80;96.70;;;;;;5034580;28;20052;-71
2024/03/25 05:23:58;;;;;;;5.90;3.10;;;8.90;96.70;;;;;;5064548;28;20165;-71
2024/03/25 05:26:26;;;;;;;4.85;2.50;;;8.80;96.70;;;;;;5063265;28;20045;-71
2024/03/25 05:28:54;;;;;;;5.00;2.90;;;8.80;96.70;;;;;;5070457;28;20242;-71
2024/03/25 05:31:23;;;;;;;4.57;2.47;;;8.90;96.70;;;;;;5049058;28;20052;-71
2024/03/25 05:33:54;;;;;;;4.05;2.22;;;8.90;96.70;;;;;;5073039;28;20043;-72
2024/03/25 05:36:21;;;;;;;7.20;2.80;;;9.00;96.70;;;;;;5070963;28;20148;-71
2024/03/25 05:38:47;;;;;;;6.13;2.92;;;9.00;96.70;;;;;;5064905;28;20551;-71
2024/03/25 05:41:16;;;;;;;5.60;2.22;;;8.90;96.70;;;;;;5047844;28;20052;-71
2024/03/25 05:43:45;;;;;;;6.10;2.50;;;8.90;96.70;;;;;;5058307;28;20422;-71
2024/03/25 05:46:13;;;;;;;4.28;2.28;;;9.00;96.70;;;;;;5063804;28;20117;-71
2024/03/25 05:48:43;;;;;;;6.18;2.67;;;9.00;96.70;;;;;;5063943;28;20064;-71
2024/03/25 05:51:15;;;;;;;7.05;2.80;;;9.20;96.70;;;;;;5051929;28;20117;-71
2024/03/25 05:53:43;;;;;;;5.03;2.60;;;9.30;96.70;;;;;;5048159;28;20126;-71
2024/03/25 05:56:10;;;;;;;3.67;2.20;;;9.40;96.70;;;;;;5065044;28;20608;-71
2024/03/25 05:58:39;;;;;;;5.57;2.63;;;9.20;96.70;;;;;;5048488;28;20534;-71
2024/03/25 06:01:09;;;;;;;3.17;2.08;;;9.20;96.70;;;;;;5059100;28;20140;-71
2024/03/25 06:03:37;;;;;;;5.35;2.40;;;9.30;96.70;;;;;;5064794;28;20054;-71
2024/03/25 06:06:05;;;;;;;4.43;2.33;;;9.30;96.70;;;;;;5064687;28;20143;-70
2024/03/25 06:08:36;;;;;;;4.38;2.03;;;9.40;96.70;;;;;;5064435;28;20454;-73
2024/03/25 06:11:07;;;;;;;5.28;2.28;;;9.40;96.70;;;;;;5047704;28;20069;-71
2024/03/25 06:13:38;;;;;;;5.28;2.65;;;9.40;96.70;;;;;;5056608;28;20549;-71
2024/03/25 06:16:06;;;;;;;3.92;2.38;;;9.30;96.70;;;;;;5064705;28;20040;-72
2024/03/25 06:18:36;;;;;;;4.68;2.33;;;9.40;96.70;;;;;;5056090;28;20052;-71
2024/03/25 06:21:05;;;;;;;8.85;2.78;;;9.50;96.70;;;;;;5064634;28;20061;-71
2024/03/25 06:23:34;;;;;;;4.18;2.40;;;9.60;96.70;;;;;;5064436;28;20118;-70
2024/03/25 06:26:02;;;;;;;6.28;3.75;;;9.60;96.70;;;;;;5048285;28;20041;-71
2024/03/25 06:28:29;;;;;;;13.10;7.38;;;9.60;96.70;;;;;;5047358;28;20057;-71
2024/03/25 06:36:35;;;;;;;16.90;8.75;;;9.90;96.70;;;;;;5057264;28;20037;-69
2024/03/25 06:39:05;;;;;;;12.43;8.18;;;10.00;96.70;;;;;;5064086;28;20045;-69
2024/03/25 06:41:33;;;;;;;14.23;8.48;;;10.00;96.70;;;;;;5063431;28;20071;-71
2024/03/25 06:44:01;;;;;;;11.43;6.72;;;10.10;96.70;;;;;;5043296;28;20043;-71
2024/03/25 06:46:29;;;;;;;9.88;6.05;;;10.00;96.70;;;;;;5062074;28;20040;-71
2024/03/25 06:48:57;;;;;;;9.55;5.78;;;10.10;96.70;;;;;;5063879;28;20046;-69
2024/03/25 06:51:26;;;;;;;8.80;6.13;;;10.20;96.70;;;;;;5043616;28;20537;-70
2024/03/25 06:53:54;;;;;;;11.63;7.15;;;10.30;96.70;;;;;;5047368;28;20489;-70
2024/03/25 06:56:25;;;;;;;16.00;10.20;;;10.40;96.70;;;;;;5064707;28;20048;-70
2024/03/25 06:58:54;;;;;;;19.95;11.70;;;10.30;96.70;;;;;;5063815;28;20037;-70
2024/03/25 07:01:21;;;;;;;32.05;19.33;;;10.30;96.70;;;;;;5063775;28;20053;-70
2024/03/25 07:03:48;;;;;;;19.75;12.30;;;10.40;96.70;;;;;;5047503;28;20052;-71
2024/03/25 07:06:19;;;;;;;13.43;8.63;;;10.40;96.70;;;;;;5050849;28;20054;-71
2024/03/25 07:08:47;;;;;;;9.55;5.50;;;10.40;96.70;;;;;;5050587;28;20837;-70
2024/03/25 07:11:18;;;;;;;7.60;4.38;;;10.50;96.70;;;;;;5050132;28;20048;-70
2024/03/25 07:13:49;;;;;;;11.88;6.40;;;10.50;96.70;;;;;;5059238;28;20048;-70
2024/03/25 07:16:18;;;;;;;7.88;4.70;;;10.60;96.70;;;;;;5067334;28;20052;-70
2024/03/25 07:18:44;;;;;;;6.40;4.10;;;10.70;96.70;;;;;;5050612;28;20042;-70
2024/03/25 07:21:13;;;;;;;6.53;3.72;;;10.70;96.70;;;;;;5050860;28;20049;-71
2024/03/25 07:23:44;;;;;;;7.53;4.25;;;10.80;96.70;;;;;;5066674;28;20113;-70
2024/03/25 07:26:12;;;;;;;6.60;3.22;;;10.80;96.70;;;;;;5058753;28;20122;-70
2024/03/25 07:28:41;;;;;;;8.68;4.40;;;10.80;96.70;;;;;;5067308;28;20060;-71
2024/03/25 07:31:11;;;;;;;6.97;3.80;;;10.90;96.70;;;;;;5050096;28;20614;-70
2024/03/25 07:33:39;;;;;;;8.48;3.80;;;11.00;96.70;;;;;;5066532;28;20044;-70
2024/03/25 07:36:07;;;;;;;8.05;4.30;;;11.00;96.70;;;;;;5066603;28;20098;-71
2024/03/25 07:38:37;;;;;;;9.88;5.38;;;11.10;96.70;;;;;;5041796;28;20421;-71
2024/03/25 07:41:05;;;;;;;10.40;5.13;;;11.20;96.70;;;;;;5065516;28;20610;-70
2024/03/25 07:43:33;;;;;;;8.57;4.47;;;11.30;96.70;;;;;;5049131;28;20530;-70
2024/03/25 07:46:02;;;;;;;8.30;4.63;;;11.30;96.70;;;;;;5066167;28;20460;-71
2024/03/25 07:48:31;;;;;;;7.03;4.53;;;11.30;96.70;;;;;;5066347;28;20701;-71
2024/03/25 07:51:00;;;;;;;6.47;4.18;;;11.40;96.70;;;;;;5065924;28;20150;-71
2024/03/25 07:53:28;;;;;;;6.53;4.43;;;11.50;96.70;;;;;;5026617;28;20045;-71
2024/03/25 07:55:56;;;;;;;7.03;4.10;;;11.60;96.70;;;;;;5066121;28;20072;-69
2024/03/25 07:58:24;;;;;;;7.05;4.13;;;11.70;96.70;;;;;;5066706;28;20072;-70
2024/03/25 08:00:51;;;;;;;10.35;4.43;;;11.70;96.70;;;;;;5049570;28;20044;-71
2024/03/25 08:03:19;;;;;;;7.78;4.30;;;11.70;96.70;;;;;;5065431;28;20040;-70
2024/03/25 08:05:49;;;;;;;7.20;4.50;;;11.70;96.70;;;;;;5065474;28;20052;-71
2024/03/25 08:08:18;;;;;;;5.40;3.75;;;11.70;96.70;;;;;;5066189;28;20615;-71
2024/03/25 08:10:49;;;;;;;6.70;3.72;;;11.80;96.70;;;;;;5050176;28;20101;-71
2024/03/25 08:13:19;;;;;;;7.40;4.07;;;11.90;96.70;;;;;;5049151;28;20052;-71
2024/03/25 08:15:47;;;;;;;6.68;4.00;;;12.00;96.70;;;;;;5062271;28;20818;-70
2024/03/25 08:18:14;;;;;;;7.10;3.60;;;12.00;96.70;;;;;;5065325;28;20045;-71
2024/03/25 08:20:48;;;;;;;7.40;3.85;;;12.10;96.70;;;;;;5065612;28;20053;-70
2024/03/25 08:23:17;;;;;;;6.90;3.92;;;12.10;96.70;;;;;;5065192;28;20108;-71
2024/03/25 08:25:45;;;;;;;8.05;4.57;;;12.20;96.70;;;;;;5069513;28;20079;-72
2024/03/25 08:28:12;;;;;;;6.88;3.47;;;12.30;96.70;;;;;;5068831;28;20167;-71
2024/03/25 08:30:40;;;;;;;6.60;3.20;;;12.40;96.70;;;;;;5049130;28;20043;-70
2024/03/25 08:33:07;;;;;;;5.60;3.30;;;12.50;96.70;;;;;;5065154;28;20045;-71
2024/03/25 08:35:34;;;;;;;9.00;4.05;;;12.50;96.70;;;;;;5043056;28;20139;-71
2024/03/25 08:38:03;;;;;;;7.00;3.67;;;12.60;96.70;;;;;;5053654;28;20060;-71
2024/03/25 08:40:31;;;;;;;6.78;3.72;;;12.70;96.70;;;;;;5075280;28;20093;-72
2024/03/25 08:42:58;;;;;;;7.25;3.20;;;12.70;96.70;;;;;;5077216;28;20040;-71
2024/03/25 08:45:28;;;;;;;8.38;3.80;;;12.80;96.70;;;;;;5050596;28;20052;-71
2024/03/25 08:47:55;;;;;;;8.68;3.47;;;12.90;96.70;;;;;;5071941;28;20044;-70
2024/03/25 08:50:24;;;;;;;7.75;2.85;;;13.00;96.70;;;;;;5050127;28;20044;-71
2024/03/25 08:52:52;;;;;;;6.18;2.17;;;13.20;96.70;;;;;;5070608;28;20047;-71
2024/03/25 08:55:22;;;;;;;4.25;2.47;;;13.20;96.70;;;;;;5074985;28;20048;-70
2024/03/25 08:57:50;;;;;;;6.65;2.00;;;13.20;96.70;;;;;;5070301;28;20064;-71
2024/03/25 09:00:18;;;;;;;7.38;2.17;;;13.40;96.70;;;;;;5069003;28;20040;-71
2024/03/25 09:02:46;;;;;;;5.30;1.73;;;13.50;96.70;;;;;;5052978;28;20039;-70
2024/03/25 09:05:18;;;;;;;9.80;2.05;;;13.60;96.70;;;;;;5075513;28;20059;-71
2024/03/25 09:07:49;;;;;;;6.18;1.70;;;13.70;96.70;;;;;;5062437;28;20544;-71
2024/03/25 09:13:08;;;;;;;6.60;1.98;;;13.90;96.70;;;;;;5052758;28;20048;-71
2024/03/25 09:15:37;;;;;;;9.52;2.10;;;13.90;96.70;;;;;;5064051;28;20052;-71
2024/03/25 09:18:05;;;;;;;7.03;2.10;;;14.10;96.70;;;;;;5073681;28;20473;-71
2024/03/25 09:20:33;;;;;;;4.75;1.77;;;14.00;96.70;;;;;;5066914;28;20480;-70
2024/03/25 09:23:02;;;;;;;7.78;2.03;;;14.10;96.70;;;;;;5067592;28;21039;-71
2024/03/25 09:25:29;;;;;;;4.88;1.85;;;14.30;96.70;;;;;;5049156;28;20715;-71
2024/03/25 09:28:00;;;;;;;7.53;2.30;;;14.40;96.70;;;;;;5075489;28;20048;-71
2024/03/25 09:30:29;;;;;;;4.88;1.55;;;14.50;96.70;;;;;;5070459;28;20122;-71
2024/03/25 09:32:57;;;;;;;9.15;2.05;;;14.70;96.70;;;;;;5068311;28;20048;-71
2024/03/25 09:35:25;;;;;;;7.30;2.00;;;14.80;96.70;;;;;;5068815;28;20718;-70
2024/03/25 09:37:52;;;;;;;9.02;2.42;;;14.90;96.70;;;;;;5068830;28;20756;-69
2024/03/25 09:40:20;;;;;;;12.70;3.15;;;14.80;96.70;;;;;;5078243;28;20051;-70
2024/03/25 09:42:49;;;;;;;7.88;2.65;;;14.80;96.70;;;;;;5068393;28;20067;-68
2024/03/25 09:45:18;;;;;;;5.60;2.00;;;14.90;96.70;;;;;;5065289;28;20068;-67
2024/03/25 09:47:52;;;;;;;6.07;2.20;;;15.10;96.70;;;;;;5073060;28;20123;-70
2024/03/25 09:50:22;;;;;;;5.22;1.98;;;15.10;96.70;;;;;;5076508;28;20036;-70
2024/03/25 09:52:52;;;;;;;5.32;1.60;;;15.30;96.70;;;;;;5072599;28;20048;-69
2024/03/25 09:55:19;;;;;;;3.75;1.30;;;15.30;96.70;;;;;;5072353;28;20043;-70
2024/03/25 09:57:46;;;;;;;6.05;1.60;;;15.30;96.70;;;;;;5075545;28;20127;-70
2024/03/25 10:00:15;;;;;;;3.63;1.35;;;15.40;96.70;;;;;;5061820;28;20432;-70
2024/03/25 10:02:45;;;;;;;4.57;1.85;;;15.40;96.70;;;;;;5075969;28;20040;-70
2024/03/25 10:05:16;;;;;;;5.63;1.48;;;15.60;96.70;;;;;;5058818;28;20191;-70
2024/03/25 10:07:46;;;;;;;4.50;1.27;;;15.80;96.70;;;;;;5075341;28;20051;-69
2024/03/25 10:10:14;;;;;;;4.93;1.40;;;15.90;96.70;;;;;;5079744;28;20732;-69
2024/03/25 10:12:42;;;;;;;4.47;1.83;;;15.90;96.70;;;;;;5048263;28;20056;-70
2024/03/25 10:15:16;;;;;;;4.70;1.70;;;15.90;96.70;;;;;;5072981;28;20608;-70
2024/03/25 10:17:45;;;;;;;3.50;1.40;;;15.90;96.70;;;;;;5077942;28;20048;-68
2024/03/25 10:20:16;;;;;;;3.72;1.42;;;16.10;96.70;;;;;;5066531;28;20048;-69
2024/03/25 10:22:46;;;;;;;2.70;1.30;;;16.20;96.70;;;;;;5066704;28;20108;-70
2024/03/25 10:25:23;;;;;;;3.60;1.35;;;16.30;96.70;;;;;;5074013;28;20851;-70
2024/03/25 10:27:56;;;;;;;5.68;2.05;;;16.50;96.70;;;;;;5078013;28;20064;-70
2024/03/25 10:30:24;;;;;;;8.85;3.97;;;16.50;96.70;;;;;;5053982;28;20054;-70
2024/03/25 10:33:00;;;;;;;7.35;3.08;;;16.50;96.70;;;;;;5087853;28;20530;-69
2024/03/25 10:35:31;;;;;;;4.50;1.90;;;16.50;96.70;;;;;;5088288;28;20036;-70
2024/03/25 10:38:01;;;;;;;5.15;1.77;;;16.70;96.70;;;;;;5085249;28;20046;-68
2024/03/25 10:40:32;;;;;;;3.78;1.67;;;16.90;96.70;;;;;;5073634;28;20027;-69
2024/03/25 10:43:03;;;;;;;4.65;1.83;;;17.00;96.70;;;;;;5090753;28;20118;-69
2024/03/25 10:45:31;;;;;;;4.38;1.80;;;16.90;96.70;;;;;;5090155;28;20591;-70
2024/03/25 10:48:04;;;;;;;6.88;2.42;;;16.80;96.70;;;;;;5070795;28;20157;-70
2024/03/25 10:50:36;;;;;;;8.43;2.72;;;17.00;96.70;;;;;;5057489;28;20508;-70
2024/03/25 10:53:07;;;;;;;4.10;1.80;;;17.30;96.70;;;;;;5070102;28;20048;-71
2024/03/25 10:55:36;;;;;;;9.13;3.20;;;17.20;96.70;;;;;;5073076;28;20096;-71
2024/03/25 10:58:06;;;;;;;8.27;2.50;;;17.30;96.70;;;;;;5088369;28;20113;-69
2024/03/25 11:00:34;;;;;;;6.57;2.38;;;17.40;96.70;;;;;;5072947;28;20044;-69
2024/03/25 11:03:05;;;;;;;3.85;1.90;;;17.40;96.70;;;;;;5090394;28;20047;-69
2024/03/25 11:05:39;;;;;;;2.45;0.95;;;17.20;96.70;;;;;;5090219;28;20050;-69
2024/03/25 11:08:13;;;;;;;2.47;1.40;;;17.30;96.70;;;;;;5072439;28;20142;-69
2024/03/25 11:10:44;;;;;;;3.10;1.10;;;17.50;96.70;;;;;;5090644;28;20152;-69
2024/03/25 11:13:12;;;;;;;5.80;1.30;;;17.60;96.70;;;;;;5090719;28;20492;-68
2024/03/25 11:15:44;;;;;;;4.30;1.70;;;17.70;96.70;;;;;;5090419;28;20104;-68
2024/03/25 11:18:13;;;;;;;3.10;1.50;;;17.80;96.70;;;;;;5090406;28;20044;-68
2024/03/25 11:20:44;;;;;;;3.78;1.63;;;18.00;96.70;;;;;;5080046;28;20044;-69
2024/03/25 11:23:13;;;;;;;5.35;1.55;;;18.10;96.70;;;;;;5090171;28;21097;-68
2024/03/25 11:25:41;;;;;;;3.17;1.63;;;18.10;96.70;;;;;;5090136;28;20357;-68
2024/03/25 11:28:10;;;;;;;3.95;1.70;;;18.00;96.70;;;;;;5088858;28;20560;-68
2024/03/25 11:30:41;;;;;;;4.30;2.00;;;18.00;96.70;;;;;;5089894;28;20063;-68
2024/03/25 11:33:10;;;;;;;4.03;2.10;;;18.00;96.70;;;;;;5066643;28;20074;-68
2024/03/25 11:35:39;;;;;;;3.22;1.48;;;18.20;96.70;;;;;;5089636;28;20101;-68
2024/03/25 11:38:11;;;;;;;5.40;2.70;;;18.30;96.70;;;;;;5090343;28;20047;-69
2024/03/25 11:40:42;;;;;;;7.18;2.40;;;18.40;96.70;;;;;;5090076;28;20036;-68
2024/03/25 11:43:19;;;;;;;4.32;1.88;;;18.50;96.70;;;;;;5089917;28;20078;-68
2024/03/25 11:45:48;;;;;;;5.13;1.73;;;18.50;96.70;;;;;;5082234;28;20131;-67
2024/03/25 11:48:18;;;;;;;4.90;1.52;;;18.40;96.70;;;;;;5089733;28;20492;-68
2024/03/25 11:50:46;;;;;;;4.82;1.77;;;18.40;96.70;;;;;;5088388;28;20046;-68
2024/03/25 11:53:20;;;;;;;3.55;1.70;;;18.40;96.70;;;;;;5086237;28;20524;-68
2024/03/25 11:55:48;;;;;;;4.30;1.65;;;18.40;96.70;;;;;;5088865;28;20039;-68
2024/03/25 11:58:17;;;;;;;4.53;1.60;;;18.40;96.70;;;;;;5088410;28;20126;-69
2024/03/25 12:00:45;;;;;;;4.93;1.65;;;18.50;96.70;;;;;;5072119;28;20044;-68
2024/03/25 12:03:16;;;;;;;2.90;1.55;;;18.80;96.70;;;;;;5089496;28;20089;-69
2024/03/25 12:05:45;;;;;;;5.60;2.13;;;19.00;96.70;;;;;;5088910;28;20126;-68
2024/03/25 12:08:13;;;;;;;5.15;1.95;;;19.40;96.70;;;;;;5088756;28;20040;-68
2024/03/25 12:13:33;;;;;;;5.72;1.55;;;19.20;96.70;;;;;;5068167;28;20488;-68
2024/03/25 12:16:03;;;;;;;3.95;1.60;;;19.10;96.70;;;;;;5072123;28;20055;-68
2024/03/25 12:18:33;;;;;;;4.57;1.60;;;19.00;96.70;;;;;;5087822;28;20381;-68
2024/03/25 12:21:01;;;;;;;5.95;1.83;;;19.10;96.70;;;;;;5089687;28;20046;-68
2024/03/25 12:23:32;;;;;;;3.03;1.30;;;19.30;96.70;;;;;;5089202;28;20074;-69
2024/03/25 12:26:05;;;;;;;5.13;1.58;;;19.60;96.70;;;;;;5089592;28;20487;-68
2024/03/25 12:28:37;;;;;;;3.65;1.50;;;19.90;96.70;;;;;;5086096;28;20105;-69
2024/03/25 12:31:14;;;;;;;3.28;1.30;;;20.00;96.70;;;;;;5069067;28;20044;-69
2024/03/25 12:33:42;;;;;;;2.85;1.38;;;19.90;96.70;;;;;;5086102;28;20208;-69
2024/03/25 12:36:11;;;;;;;3.33;1.65;;;19.90;96.70;;;;;;5086423;28;20055;-69
2024/03/25 12:38:42;;;;;;;4.25;1.10;;;20.00;96.70;;;;;;5085490;28;20081;-68
2024/03/25 12:41:13;;;;;;;3.90;1.23;;;20.10;96.70;;;;;;5085159;28;20147;-69
2024/03/25 12:43:43;;;;;;;4.85;1.60;;;20.30;96.70;;;;;;5084850;28;20040;-69
2024/03/25 12:46:12;;;;;;;4.40;1.13;;;20.30;96.70;;;;;;5068411;28;20139;-68
2024/03/25 12:48:41;;;;;;;3.20;1.00;;;20.30;96.70;;;;;;5067860;28;20082;-68
2024/03/25 12:51:13;;;;;;;2.97;1.00;;;20.20;96.70;;;;;;5084998;28;20028;-69
2024/03/25 12:53:42;;;;;;;3.15;1.20;;;20.20;96.70;;;;;;5083839;28;20044;-70
2024/03/25 12:56:09;;;;;;;2.67;1.33;;;20.40;96.70;;;;;;5068264;28;20052;-73
2024/03/25 12:58:38;;;;;;;3.50;1.02;;;20.70;96.70;;;;;;5068754;28;20123;-74
2024/03/25 13:01:06;;;;;;;3.45;1.13;;;20.60;96.70;;;;;;5084700;28;20524;-73
2024/03/25 13:03:35;;;;;;;2.17;0.95;;;20.70;96.70;;;;;;5067351;28;20054;-74
2024/03/25 13:06:05;;;;;;;2.45;0.80;;;20.80;96.70;;;;;;5067090;28;20489;-73
2024/03/25 13:08:32;;;;;;;1.05;0.50;;;21.00;96.70;;;;;;5076771;28;20079;-73